Time;durP1;ratioP1;P1;durP2;ratioP2;P2;SDS_P1;SDS_P2;PMS_P1;PMS_P2;Temp;Humidity;BMP_temperature;BMP_pressure;BME280_temperature;BME280_humidity;BME280_pressure;Samples;Min_cycle;Max_cycle;Signal;HPM_P1;HPM_P2
2022/10/16 00:01:06;;;;;;;13.82;3.85;;;;;;;;;;5013559;28;20042;-82
2022/10/16 00:03:32;;;;;;;14.95;3.88;;;;;;;;;;5014084;28;20045;-93
2022/10/16 00:06:00;;;;;;;14.52;3.80;;;;;;;;;;4993897;28;20046;-75
2022/10/16 00:08:26;;;;;;;14.93;4.05;;;;;;;;;;5009807;28;20054;-77
2022/10/16 00:10:52;;;;;;;13.57;4.20;;;;;;;;;;5009545;28;20042;-66
2022/10/16 00:13:19;;;;;;;14.05;4.00;;;;;;;;;;5009732;28;20132;-73
2022/10/16 00:15:46;;;;;;;16.50;4.20;;;;;;;;;;5009471;28;20058;-71
2022/10/16 00:18:14;;;;;;;14.35;3.90;;;;;;;;;;5009399;28;20132;-72
2022/10/16 00:20:40;;;;;;;16.08;3.60;;;;;;;;;;5009445;28;20089;-73
2022/10/16 00:23:06;;;;;;;13.02;3.65;;;;;;;;;;5008960;28;20347;-71
2022/10/16 00:25:32;;;;;;;13.90;3.72;;;;;;;;;;5009204;28;20498;-75
2022/10/16 00:27:58;;;;;;;;;;;;;;;;;;5009748;28;20048;-71
2022/10/16 00:30:26;;;;;;;15.63;3.75;;;;;;;;;;5009343;28;19921;-72
2022/10/16 00:32:52;;;;;;;14.30;4.00;;;;;;;;;;5009462;28;20050;-70
2022/10/16 00:35:18;;;;;;;16.23;3.92;;;;;;;;;;5009291;28;20135;-70
2022/10/16 00:37:44;;;;;;;15.48;4.05;;;;;;;;;;5009269;28;20130;-73
2022/10/16 00:40:11;;;;;;;15.55;3.60;;;;;;;;;;5009039;28;20343;-70
2022/10/16 00:42:37;;;;;;;18.98;4.50;;;;;;;;;;5009289;28;20094;-71
2022/10/16 00:45:03;;;;;;;12.00;3.40;;;;;;;;;;5011073;28;20467;-71
2022/10/16 00:47:29;;;;;;;;;;;;;;;;;;5012848;28;20354;-70
2022/10/16 00:49:59;;;;;;;12.55;3.20;;;;;;;;;;5012356;28;19926;-67
2022/10/16 00:52:25;;;;;;;15.43;3.30;;;;;;;;;;5012807;28;20049;-72
2022/10/16 00:54:52;;;;;;;11.15;3.10;;;;;;;;;;5012548;28;20053;-69
2022/10/16 00:57:18;;;;;;;15.00;3.33;;;;;;;;;;5012644;28;20045;-76
2022/10/16 00:59:44;;;;;;;13.63;3.70;;;;;;;;;;5011132;28;20109;-71
2022/10/16 01:02:12;;;;;;;15.68;3.40;;;;;;;;;;5012573;28;20045;-74
2022/10/16 01:04:40;;;;;;;19.23;3.85;;;;;;;;;;5012657;28;20072;-74
2022/10/16 01:07:09;;;;;;;14.82;3.15;;;;;;;;;;5012178;28;20452;-74
2022/10/16 01:09:43;;;;;;;16.38;3.50;;;;;;;;;;5012510;28;20041;-75
2022/10/16 01:12:16;;;;;;;12.27;3.10;;;;;;;;;;5012486;28;20506;-71
2022/10/16 01:14:57;;;;;;;14.93;3.28;;;;;;;;;;5012169;28;20140;-73
2022/10/16 01:17:50;;;;;;;12.32;3.20;;;;;;;;;;5012147;28;20128;-69
2022/10/16 01:20:23;;;;;;;15.57;3.30;;;;;;;;;;4988798;28;20054;-70
2022/10/16 01:22:52;;;;;;;14.70;3.47;;;;;;;;;;5012430;28;20053;-74
2022/10/16 01:25:37;;;;;;;13.65;3.25;;;;;;;;;;5012168;28;20072;-66
2022/10/16 01:28:05;;;;;;;11.95;3.00;;;;;;;;;;5011748;28;20473;-69
2022/10/16 01:30:32;;;;;;;20.55;3.35;;;;;;;;;;4994567;28;20050;-67
2022/10/16 01:33:03;;;;;;;12.25;3.20;;;;;;;;;;5012148;28;20065;-73
2022/10/16 01:35:35;;;;;;;15.38;3.25;;;;;;;;;;5014212;28;20178;-69
2022/10/16 01:38:04;;;;;;;13.30;3.42;;;;;;;;;;5016195;28;20130;-70
2022/10/16 01:40:32;;;;;;;13.13;3.28;;;;;;;;;;5015425;28;20114;-79
2022/10/16 01:43:13;;;;;;;11.85;3.45;;;;;;;;;;5016340;28;20104;-76
2022/10/16 01:45:39;;;;;;;13.23;3.72;;;;;;;;;;5013134;28;20095;-73
2022/10/16 01:48:09;;;;;;;12.07;3.40;;;;;;;;;;4994082;28;20050;-72
2022/10/16 01:50:37;;;;;;;13.75;3.22;;;;;;;;;;5011909;28;20049;-78
2022/10/16 01:53:04;;;;;;;13.18;3.40;;;;;;;;;;5011570;28;20411;-73
2022/10/16 01:55:31;;;;;;;11.75;2.95;;;;;;;;;;5010892;28;20068;-71
2022/10/16 01:57:59;;;;;;;13.52;3.38;;;;;;;;;;5011457;28;20096;-72
2022/10/16 02:00:26;;;;;;;11.13;3.28;;;;;;;;;;5011221;28;20057;-71
2022/10/16 02:02:55;;;;;;;10.65;2.95;;;;;;;;;;5011365;28;20049;-74
2022/10/16 02:05:27;;;;;;;12.60;3.30;;;;;;;;;;5011268;28;20089;-73
2022/10/16 02:07:53;;;;;;;12.85;3.63;;;;;;;;;;5011240;28;20196;-74
2022/10/16 02:10:20;;;;;;;12.18;3.58;;;;;;;;;;5011493;28;20081;-72
2022/10/16 02:12:50;;;;;;;11.88;2.95;;;;;;;;;;5011324;28;20365;-72
2022/10/16 02:15:16;;;;;;;13.23;3.33;;;;;;;;;;5010908;28;20505;-75
2022/10/16 02:17:42;;;;;;;11.15;3.28;;;;;;;;;;5011017;28;20145;-73
2022/10/16 02:20:08;;;;;;;11.52;3.90;;;;;;;;;;5025964;28;20057;-66
2022/10/16 02:22:36;;;;;;;;;;;;;;;;;;5011586;28;20045;-73
2022/10/16 02:25:13;;;;;;;13.00;3.20;;;;;;;;;;5011211;28;19944;-73
2022/10/16 02:27:49;;;;;;;10.65;3.13;;;;;;;;;;5011000;28;20069;-67
2022/10/16 02:30:25;;;;;;;14.20;3.00;;;;;;;;;;5011843;28;20451;-72
2022/10/16 02:32:52;;;;;;;11.80;3.30;;;;;;;;;;5012543;28;20117;-72
2022/10/16 02:35:20;;;;;;;10.48;3.10;;;;;;;;;;5015469;28;20145;-68
2022/10/16 02:37:47;;;;;;;11.27;2.70;;;;;;;;;;5014509;28;20065;-68
2022/10/16 02:40:14;;;;;;;8.45;3.03;;;;;;;;;;5015381;28;20379;-71
2022/10/16 02:42:40;;;;;;;13.07;3.00;;;;;;;;;;5011925;28;20124;-72
2022/10/16 02:45:07;;;;;;;13.40;3.20;;;;;;;;;;5010779;28;20084;-72
2022/10/16 02:47:33;;;;;;;10.07;3.03;;;;;;;;;;5010542;28;20046;-67
2022/10/16 02:49:59;;;;;;;9.70;2.90;;;;;;;;;;5010345;28;20475;-69
2022/10/16 02:52:25;;;;;;;12.27;3.15;;;;;;;;;;5010661;28;20054;-72
2022/10/16 02:54:51;;;;;;;11.32;3.00;;;;;;;;;;5010658;28;20521;-72
2022/10/16 02:57:17;;;;;;;11.77;3.28;;;;;;;;;;5010603;28;20117;-72
2022/10/16 02:59:44;;;;;;;10.57;2.78;;;;;;;;;;5010225;28;20057;-68
2022/10/16 03:02:10;;;;;;;11.30;3.63;;;;;;;;;;5010446;28;20413;-70
2022/10/16 03:04:36;;;;;;;10.18;3.25;;;;;;;;;;5010535;28;20064;-70
2022/10/16 03:07:02;;;;;;;11.82;2.80;;;;;;;;;;5010285;28;20054;-79
2022/10/16 03:09:28;;;;;;;12.90;3.08;;;;;;;;;;5010393;28;20046;-68
2022/10/16 03:11:55;;;;;;;9.82;3.00;;;;;;;;;;4992769;28;20065;-71
2022/10/16 03:14:21;;;;;;;11.05;3.00;;;;;;;;;;5025202;28;20123;-72
2022/10/16 03:16:49;;;;;;;11.38;2.90;;;;;;;;;;5009668;28;20049;-68
2022/10/16 03:19:16;;;;;;;9.48;2.63;;;;;;;;;;5007526;28;20133;-69
2022/10/16 03:21:42;;;;;;;8.45;2.83;;;;;;;;;;5009886;28;20504;-70
2022/10/16 03:24:09;;;;;;;10.55;2.90;;;;;;;;;;5010230;28;20338;-72
2022/10/16 03:26:35;;;;;;;8.70;2.70;;;;;;;;;;5010132;28;20176;-72
2022/10/16 03:29:03;;;;;;;9.30;2.70;;;;;;;;;;5010445;28;20150;-78
2022/10/16 03:31:29;;;;;;;9.77;2.90;;;;;;;;;;4992119;28;20108;-74
2022/10/16 03:33:55;;;;;;;13.10;2.97;;;;;;;;;;5009833;28;20101;-74
2022/10/16 03:36:21;;;;;;;9.00;2.95;;;;;;;;;;5010275;28;20440;-73
2022/10/16 03:38:47;;;;;;;9.75;3.00;;;;;;;;;;5012864;28;20161;-74
2022/10/16 03:41:13;;;;;;;8.40;2.63;;;;;;;;;;5016138;28;20049;-72
2022/10/16 03:43:39;;;;;;;11.77;3.15;;;;;;;;;;5010343;28;20088;-70
2022/10/16 03:46:05;;;;;;;8.43;2.67;;;;;;;;;;5010675;28;20105;-72
2022/10/16 03:48:32;;;;;;;9.68;2.85;;;;;;;;;;4992336;28;20123;-73
2022/10/16 03:50:58;;;;;;;8.15;2.78;;;;;;;;;;5009947;28;20054;-68
2022/10/16 03:53:24;;;;;;;;;;;;;;;;;;5010105;28;20179;-76
2022/10/16 03:55:50;;;;;;;10.50;3.10;;;;;;;;;;5009835;28;20318;-75
2022/10/16 03:58:16;;;;;;;11.45;3.15;;;;;;;;;;5009597;28;20159;-73
2022/10/16 04:00:47;;;;;;;10.55;3.20;;;;;;;;;;5009653;28;20117;-71
2022/10/16 04:03:13;;;;;;;10.98;3.08;;;;;;;;;;5009563;28;20152;-71
2022/10/16 04:05:39;;;;;;;11.18;2.95;;;;;;;;;;5009552;28;20086;-70
2022/10/16 04:08:05;;;;;;;8.40;2.95;;;;;;;;;;5009704;28;20049;-74
2022/10/16 04:10:31;;;;;;;8.70;2.90;;;;;;;;;;5009027;28;20440;-70
2022/10/16 04:12:57;;;;;;;10.57;3.03;;;;;;;;;;4991407;28;20076;-72
2022/10/16 04:15:24;;;;;;;11.32;3.00;;;;;;;;;;4991353;28;20445;-67
2022/10/16 04:17:51;;;;;;;10.68;3.15;;;;;;;;;;5008916;28;20478;-73
2022/10/16 04:20:17;;;;;;;10.30;3.25;;;;;;;;;;5012132;28;20437;-74
2022/10/16 04:22:43;;;;;;;7.60;2.80;;;;;;;;;;5013237;28;20149;-73
2022/10/16 04:25:09;;;;;;;9.18;3.30;;;;;;;;;;5013000;28;20482;-73
2022/10/16 04:27:35;;;;;;;11.27;3.15;;;;;;;;;;5013175;28;20125;-72
2022/10/16 04:30:01;;;;;;;11.35;3.20;;;;;;;;;;5013069;28;20038;-72
2022/10/16 04:32:27;;;;;;;10.82;2.92;;;;;;;;;;5013299;28;20054;-67
2022/10/16 04:34:54;;;;;;;9.77;2.90;;;;;;;;;;5013117;28;20092;-72
2022/10/16 04:37:23;;;;;;;10.32;3.08;;;;;;;;;;5013240;28;20057;-74
2022/10/16 04:39:49;;;;;;;9.80;3.20;;;;;;;;;;5012949;28;20121;-73
2022/10/16 04:42:15;;;;;;;11.85;3.30;;;;;;;;;;5012992;28;20053;-67
2022/10/16 04:44:41;;;;;;;12.93;3.30;;;;;;;;;;5012998;28;20052;-73
2022/10/16 04:47:07;;;;;;;12.02;3.30;;;;;;;;;;5012969;28;20054;-73
2022/10/16 04:49:34;;;;;;;10.82;3.35;;;;;;;;;;5012850;28;20140;-74
2022/10/16 04:52:00;;;;;;;10.38;3.10;;;;;;;;;;5012651;28;20057;-73
2022/10/16 04:54:26;;;;;;;13.10;3.00;;;;;;;;;;5012360;28;20046;-75
2022/10/16 04:56:52;;;;;;;10.88;3.47;;;;;;;;;;4995200;28;20126;-74
2022/10/16 04:59:18;;;;;;;11.63;3.15;;;;;;;;;;5012669;28;20046;-71
2022/10/16 05:01:45;;;;;;;10.98;3.47;;;;;;;;;;5012465;28;20061;-74
2022/10/16 05:04:11;;;;;;;13.10;3.90;;;;;;;;;;5012170;28;20046;-69
2022/10/16 05:06:38;;;;;;;12.02;3.30;;;;;;;;;;5012582;28;20112;-77
2022/10/16 05:09:04;;;;;;;10.80;3.25;;;;;;;;;;5012288;28;20050;-73
2022/10/16 05:11:30;;;;;;;;;;;;;;;;;;5012684;28;20046;-73
2022/10/16 05:13:57;;;;;;;13.32;3.60;;;;;;;;;;5012585;28;19928;-85
2022/10/16 05:16:23;;;;;;;11.40;3.45;;;;;;;;;;5012418;28;20137;-77
2022/10/16 05:18:49;;;;;;;10.63;3.50;;;;;;;;;;5012284;28;20080;-80
2022/10/16 05:21:15;;;;;;;11.40;3.72;;;;;;;;;;5012036;28;20046;-85
2022/10/16 05:23:41;;;;;;;11.98;3.63;;;;;;;;;;5011934;28;20050;-80
2022/10/16 05:26:07;;;;;;;11.60;3.70;;;;;;;;;;5012081;28;20067;-77
2022/10/16 05:28:33;;;;;;;10.63;3.60;;;;;;;;;;5012299;28;20064;-73
2022/10/16 05:30:59;;;;;;;12.82;3.95;;;;;;;;;;5010671;28;20050;-83
2022/10/16 05:33:26;;;;;;;11.55;3.50;;;;;;;;;;5012795;28;20133;-85
2022/10/16 05:35:52;;;;;;;;;;;;;;;;;;5028037;28;20050;-81
2022/10/16 05:38:18;;;;;;;11.50;3.80;;;;;;;;;;5033177;28;19985;-81
2022/10/16 05:40:51;;;;;;;12.15;3.70;;;;;;;;;;5030033;28;20164;-81
2022/10/16 05:43:17;;;;;;;9.25;3.65;;;;;;;;;;5015501;28;20148;-83
2022/10/16 05:45:43;;;;;;;9.13;3.53;;;;;;;;;;5015516;28;20046;-81
2022/10/16 05:48:09;;;;;;;9.73;3.60;;;;;;;;;;5013996;28;20169;-81
2022/10/16 05:50:35;;;;;;;10.70;4.10;;;;;;;;;;5011892;28;20052;-72
2022/10/16 05:53:01;;;;;;;10.38;3.92;;;;;;;;;;5011628;28;20046;-81
2022/10/16 05:55:27;;;;;;;12.13;4.07;;;;;;;;;;5026762;28;20169;-70
2022/10/16 05:57:56;;;;;;;13.02;4.40;;;;;;;;;;5011757;28;20446;-82
2022/10/16 06:00:22;;;;;;;12.95;4.00;;;;;;;;;;5011192;28;20454;-80
2022/10/16 06:02:49;;;;;;;11.13;4.43;;;;;;;;;;5011207;28;20068;-77
2022/10/16 06:05:15;;;;;;;13.45;4.55;;;;;;;;;;5010941;28;20066;-72
2022/10/16 06:07:41;;;;;;;13.38;3.80;;;;;;;;;;5010704;28;20057;-79
2022/10/16 06:10:07;;;;;;;13.05;4.28;;;;;;;;;;5010661;28;20112;-81
2022/10/16 06:12:33;;;;;;;;;;;;;;;;;;5011440;28;20076;-83
2022/10/16 06:14:59;;;;;;;12.73;4.40;;;;;;;;;;5011136;28;19925;-78
2022/10/16 06:17:25;;;;;;;13.70;4.80;;;;;;;;;;5010554;28;20458;-81
2022/10/16 06:19:51;;;;;;;14.32;4.78;;;;;;;;;;5011094;28;20065;-85
2022/10/16 06:22:17;;;;;;;10.98;4.30;;;;;;;;;;5010917;28;20054;-82
2022/10/16 06:24:43;;;;;;;12.43;4.80;;;;;;;;;;5010713;28;20046;-80
2022/10/16 06:27:09;;;;;;;10.02;4.30;;;;;;;;;;5010403;28;20151;-84
2022/10/16 06:29:35;;;;;;;13.50;5.13;;;;;;;;;;5025791;28;20135;-78
2022/10/16 06:32:01;;;;;;;13.07;5.05;;;;;;;;;;5010308;28;20050;-79
2022/10/16 06:34:27;;;;;;;13.18;5.15;;;;;;;;;;5010372;28;20061;-85
2022/10/16 06:36:53;;;;;;;14.40;5.50;;;;;;;;;;5010511;28;20144;-77
2022/10/16 06:39:20;;;;;;;13.00;5.10;;;;;;;;;;5010480;28;20037;-79
2022/10/16 06:41:46;;;;;;;11.32;4.80;;;;;;;;;;5009759;28;20069;-87
2022/10/16 06:44:12;;;;;;;12.85;5.20;;;;;;;;;;5010186;28;20164;-79
2022/10/16 06:46:38;;;;;;;14.73;4.53;;;;;;;;;;5010125;28;20156;-78
2022/10/16 06:49:04;;;;;;;14.82;5.05;;;;;;;;;;5009871;28;20119;-85
2022/10/16 06:51:31;;;;;;;12.50;4.53;;;;;;;;;;5010171;28;20069;-79
2022/10/16 06:53:57;;;;;;;13.63;4.78;;;;;;;;;;5010395;28;20065;-79
2022/10/16 06:56:27;;;;;;;13.63;4.43;;;;;;;;;;4992282;28;20355;-78
2022/10/16 06:58:54;;;;;;;14.32;4.57;;;;;;;;;;5009844;28;20097;-77
2022/10/16 07:01:21;;;;;;;13.27;4.85;;;;;;;;;;5009755;28;20104;-83
2022/10/16 07:03:48;;;;;;;13.57;4.32;;;;;;;;;;5024946;28;20046;-71
2022/10/16 07:06:15;;;;;;;12.38;4.22;;;;;;;;;;5010123;28;20068;-75
2022/10/16 07:08:42;;;;;;;13.88;4.10;;;;;;;;;;5025074;28;20042;-79
2022/10/16 07:11:10;;;;;;;13.88;4.30;;;;;;;;;;5010286;28;20041;-81
2022/10/16 07:13:36;;;;;;;12.13;4.50;;;;;;;;;;5014875;28;20085;-76
2022/10/16 07:16:06;;;;;;;12.57;4.22;;;;;;;;;;5029072;28;20046;-75
2022/10/16 07:18:32;;;;;;;15.38;5.25;;;;;;;;;;5017101;28;20133;-74
2022/10/16 07:20:59;;;;;;;;;;;;;;;;;;4999617;28;20054;-75
2022/10/16 07:23:25;;;;;;;13.48;3.78;;;;;;;;;;5010982;28;19926;-84
2022/10/16 07:25:55;;;;;;;14.05;4.25;;;;;;;;;;5009407;28;20067;-76
2022/10/16 07:28:21;;;;;;;11.35;4.20;;;;;;;;;;4991997;28;20510;-82
2022/10/16 07:30:47;;;;;;;;;;;;;;;;;;5009795;28;20042;-66
2022/10/16 07:33:13;;;;;;;13.65;4.32;;;;;;;;;;5009219;28;19932;-79
2022/10/16 07:35:47;;;;;;;12.77;4.28;;;;;;;;;;5009316;28;20207;-75
2022/10/16 07:38:13;;;;;;;13.30;4.32;;;;;;;;;;5024959;28;20383;-78
2022/10/16 07:40:39;;;;;;;12.88;4.32;;;;;;;;;;5019523;28;20425;-77
2022/10/16 07:43:06;;;;;;;15.30;4.45;;;;;;;;;;5041294;28;20049;-75
2022/10/16 07:45:32;;;;;;;11.73;4.28;;;;;;;;;;5003215;28;20304;-73
2022/10/16 07:47:58;;;;;;;11.43;4.45;;;;;;;;;;5011383;28;20084;-75
2022/10/16 07:50:24;;;;;;;14.85;4.55;;;;;;;;;;5009873;28;20045;-76
2022/10/16 07:52:50;;;;;;;10.85;4.40;;;;;;;;;;4991491;28;20211;-78
2022/10/16 07:55:16;;;;;;;13.77;5.35;;;;;;;;;;5008205;28;20050;-70
2022/10/16 07:57:42;;;;;;;11.95;4.38;;;;;;;;;;5008957;28;20137;-73
2022/10/16 08:00:13;;;;;;;12.77;5.20;;;;;;;;;;5009025;28;20042;-85
2022/10/16 08:02:39;;;;;;;12.90;4.18;;;;;;;;;;5009188;28;20065;-78
2022/10/16 08:05:05;;;;;;;;;;;;;;;;;;4991965;28;20049;-77
2022/10/16 08:07:31;;;;;;;14.32;4.82;;;;;;;;;;5009139;28;19921;-76
2022/10/16 08:09:58;;;;;;;15.02;4.85;;;;;;;;;;4991140;28;20049;-74
2022/10/16 08:12:25;;;;;;;13.68;5.32;;;;;;;;;;5007672;28;20418;-68
2022/10/16 08:14:51;;;;;;;14.77;5.45;;;;;;;;;;5008901;28;20042;-74
2022/10/16 08:17:17;;;;;;;14.27;4.88;;;;;;;;;;4990859;28;20050;-70
2022/10/16 08:19:49;;;;;;;15.00;5.07;;;;;;;;;;5006306;28;20054;-73
2022/10/16 08:22:15;;;;;;;9.88;4.50;;;;;;;;;;5008767;28;20058;-72
2022/10/16 08:24:41;;;;;;;16.27;5.00;;;;;;;;;;5008954;28;20236;-74
2022/10/16 08:27:08;;;;;;;11.23;4.60;;;;;;;;;;5023717;28;20120;-76
2022/10/16 08:29:34;;;;;;;12.73;4.75;;;;;;;;;;5008899;28;20168;-78
2022/10/16 08:32:01;;;;;;;12.38;4.18;;;;;;;;;;5008758;28;20110;-78
2022/10/16 08:34:27;;;;;;;12.57;4.50;;;;;;;;;;5008205;28;20513;-72
2022/10/16 08:36:56;;;;;;;13.75;4.55;;;;;;;;;;4990641;28;20067;-75
2022/10/16 08:39:22;;;;;;;11.07;3.83;;;;;;;;;;5008255;28;20100;-75
2022/10/16 08:41:54;;;;;;;10.60;3.70;;;;;;;;;;5008367;28;20428;-78
2022/10/16 08:44:23;;;;;;;12.43;3.63;;;;;;;;;;5008176;28;20130;-75
2022/10/16 08:46:49;;;;;;;12.38;3.63;;;;;;;;;;5008437;28;20140;-74
2022/10/16 08:49:15;;;;;;;13.93;4.38;;;;;;;;;;5008350;28;20080;-76
2022/10/16 08:51:42;;;;;;;14.90;3.95;;;;;;;;;;5008550;28;20046;-77
2022/10/16 08:54:27;;;;;;;14.27;3.65;;;;;;;;;;5008549;28;20399;-68
2022/10/16 08:56:55;;;;;;;14.70;3.38;;;;;;;;;;5007972;28;20045;-72
2022/10/16 08:59:21;;;;;;;10.95;3.28;;;;;;;;;;4990381;28;20073;-72
2022/10/16 09:01:50;;;;;;;17.23;3.50;;;;;;;;;;5008622;28;20069;-75
2022/10/16 09:04:28;;;;;;;11.35;3.28;;;;;;;;;;4991407;28;20077;-74
2022/10/16 09:07:00;;;;;;;14.10;3.60;;;;;;;;;;5011752;28;20427;-73
2022/10/16 09:09:29;;;;;;;10.77;3.45;;;;;;;;;;5011659;28;20239;-76
2022/10/16 09:12:01;;;;;;;14.18;3.30;;;;;;;;;;5011992;28;20111;-66
2022/10/16 09:14:46;;;;;;;12.77;3.30;;;;;;;;;;5011613;28;20052;-68
2022/10/16 09:17:12;;;;;;;15.95;3.55;;;;;;;;;;5011885;28;20053;-77
2022/10/16 09:19:41;;;;;;;13.27;3.13;;;;;;;;;;5026344;28;20045;-70
2022/10/16 09:22:15;;;;;;;12.88;3.35;;;;;;;;;;5011485;28;20046;-75
2022/10/16 09:24:41;;;;;;;13.65;3.63;;;;;;;;;;5011280;28;20108;-66
2022/10/16 09:27:11;;;;;;;12.93;3.83;;;;;;;;;;5011288;28;20073;-68
2022/10/16 09:29:37;;;;;;;11.45;3.35;;;;;;;;;;5011698;28;20073;-67
2022/10/16 09:32:15;;;;;;;13.43;3.80;;;;;;;;;;5011909;28;20048;-65
2022/10/16 09:34:51;;;;;;;12.32;3.60;;;;;;;;;;5010887;28;20448;-67
2022/10/16 09:37:18;;;;;;;16.00;3.60;;;;;;;;;;5011461;28;20075;-72
2022/10/16 09:39:52;;;;;;;15.23;3.67;;;;;;;;;;5011462;28;20048;-70
2022/10/16 09:42:23;;;;;;;18.75;3.90;;;;;;;;;;5026266;28;20086;-64
2022/10/16 09:44:50;;;;;;;15.38;4.43;;;;;;;;;;5011211;28;20108;-66
2022/10/16 09:47:21;;;;;;;11.82;3.15;;;;;;;;;;5010935;28;20132;-69
2022/10/16 09:49:53;;;;;;;13.43;3.20;;;;;;;;;;5010574;28;20049;-66
2022/10/16 09:52:20;;;;;;;14.10;3.33;;;;;;;;;;4993114;28;20108;-69
2022/10/16 09:54:53;;;;;;;14.60;3.95;;;;;;;;;;4992832;28;20434;-64
2022/10/16 09:57:19;;;;;;;20.88;4.00;;;;;;;;;;5009424;28;20430;-65
2022/10/16 09:59:52;;;;;;;18.08;3.55;;;;;;;;;;5010640;28;20058;-78
2022/10/16 10:02:20;;;;;;;16.60;3.30;;;;;;;;;;5011209;28;20085;-66
2022/10/16 10:04:51;;;;;;;16.02;3.70;;;;;;;;;;5011366;28;20046;-65
2022/10/16 10:07:19;;;;;;;16.23;3.75;;;;;;;;;;5010775;28;20050;-74
2022/10/16 10:09:46;;;;;;;20.40;4.40;;;;;;;;;;5010692;28;20037;-66
2022/10/16 10:12:18;;;;;;;16.80;3.95;;;;;;;;;;5011253;28;20056;-68
2022/10/16 10:14:46;;;;;;;22.92;3.88;;;;;;;;;;5010849;28;20041;-67
2022/10/16 10:17:14;;;;;;;20.02;3.78;;;;;;;;;;5010445;28;20216;-67
2022/10/16 10:19:50;;;;;;;21.92;3.65;;;;;;;;;;5008711;28;20130;-69
2022/10/16 10:22:23;;;;;;;19.67;4.03;;;;;;;;;;5026419;28;20545;-65
2022/10/16 10:25:07;;;;;;;20.20;3.78;;;;;;;;;;5025836;28;20045;-66
2022/10/16 10:27:33;;;;;;;17.00;4.40;;;;;;;;;;5010458;28;20467;-70
2022/10/16 10:29:59;;;;;;;22.20;4.53;;;;;;;;;;4992770;28;20053;-72
2022/10/16 10:32:36;;;;;;;17.27;4.00;;;;;;;;;;5009872;28;20348;-63
2022/10/16 10:35:15;;;;;;;18.02;3.55;;;;;;;;;;5024928;28;20125;-64
2022/10/16 10:37:41;;;;;;;18.83;4.05;;;;;;;;;;5010412;28;20049;-63
2022/10/16 10:40:28;;;;;;;20.52;3.75;;;;;;;;;;5009592;28;20138;-67
2022/10/16 10:42:59;;;;;;;21.23;4.13;;;;;;;;;;5009982;28;20187;-65
2022/10/16 10:45:38;;;;;;;16.60;3.05;;;;;;;;;;4992249;28;20085;-64
2022/10/16 10:48:23;;;;;;;14.02;3.65;;;;;;;;;;5010419;28;20126;-64
2022/10/16 10:50:53;;;;;;;17.70;3.95;;;;;;;;;;5010297;28;20202;-65
2022/10/16 10:53:25;;;;;;;14.75;3.22;;;;;;;;;;5010110;28;20062;-65
2022/10/16 10:56:14;;;;;;;19.75;3.75;;;;;;;;;;5010533;28;20137;-68
2022/10/16 10:58:40;;;;;;;18.48;3.40;;;;;;;;;;5002127;28;20172;-75
2022/10/16 11:01:13;;;;;;;28.42;3.97;;;;;;;;;;5010672;28;20127;-65
2022/10/16 11:03:52;;;;;;;17.95;4.20;;;;;;;;;;5010451;28;20065;-68
2022/10/16 11:06:27;;;;;;;23.88;4.28;;;;;;;;;;5010149;28;20049;-64
2022/10/16 11:09:00;;;;;;;19.70;3.92;;;;;;;;;;5010277;28;20046;-66
2022/10/16 11:11:30;;;;;;;21.67;4.13;;;;;;;;;;5010460;28;20140;-65
2022/10/16 11:14:17;;;;;;;18.85;3.47;;;;;;;;;;5010312;28;20125;-65
2022/10/16 11:16:46;;;;;;;17.05;3.22;;;;;;;;;;5025091;28;20484;-65
2022/10/16 11:19:14;;;;;;;17.88;2.92;;;;;;;;;;5009869;28;20355;-65
2022/10/16 11:21:43;;;;;;;17.38;2.97;;;;;;;;;;5010020;28;20081;-65
2022/10/16 11:24:19;;;;;;;14.00;3.33;;;;;;;;;;5009461;28;20050;-66
2022/10/16 11:26:46;;;;;;;18.10;3.67;;;;;;;;;;5009763;28;20049;-68
2022/10/16 11:29:16;;;;;;;22.30;3.80;;;;;;;;;;5009349;28;20548;-66
2022/10/16 11:31:45;;;;;;;19.92;3.40;;;;;;;;;;5009742;28;20431;-66
2022/10/16 11:34:22;;;;;;;17.40;3.47;;;;;;;;;;5010257;28;20104;-65
2022/10/16 11:36:51;;;;;;;15.77;3.28;;;;;;;;;;5010004;28;20064;-63
2022/10/16 11:39:20;;;;;;;22.65;3.83;;;;;;;;;;5010783;28;20082;-64
2022/10/16 11:41:49;;;;;;;18.65;3.38;;;;;;;;;;5009690;28;20443;-64
2022/10/16 11:44:34;;;;;;;18.17;4.32;;;;;;;;;;5009697;28;20056;-65
2022/10/16 11:47:12;;;;;;;20.52;3.50;;;;;;;;;;5010162;28;20054;-71
2022/10/16 11:49:39;;;;;;;18.27;3.80;;;;;;;;;;5010261;28;20058;-64
2022/10/16 11:52:11;;;;;;;20.23;3.28;;;;;;;;;;5009427;28;20424;-70
2022/10/16 11:54:40;;;;;;;15.15;3.63;;;;;;;;;;5009937;28;20211;-70
2022/10/16 11:57:12;;;;;;;17.38;3.47;;;;;;;;;;5010040;28;20379;-64
2022/10/16 11:59:43;;;;;;;18.67;3.17;;;;;;;;;;4991371;28;20111;-63
2022/10/16 12:02:27;;;;;;;17.83;3.17;;;;;;;;;;5009573;28;20096;-67
2022/10/16 12:05:04;;;;;;;16.83;3.20;;;;;;;;;;5009119;28;20508;-64
2022/10/16 12:07:37;;;;;;;22.88;3.17;;;;;;;;;;5009418;28;20256;-67
2022/10/16 12:10:23;;;;;;;15.75;3.65;;;;;;;;;;5009746;28;20195;-64
2022/10/16 12:12:50;;;;;;;17.58;4.15;;;;;;;;;;5009395;28;20042;-72
2022/10/16 12:15:15;;;;;;;;;;;;;;;;;;5009847;28;20164;-63
2022/10/16 12:17:41;;;;;;;19.60;3.53;;;;;;;;;;5010116;28;20322;-66
2022/10/16 12:20:14;;;;;;;13.50;3.30;;;;;;;;;;5009619;28;20058;-64
2022/10/16 12:22:55;;;;;;;20.83;3.42;;;;;;;;;;5025247;28;20038;-63
2022/10/16 12:25:29;;;;;;;19.65;3.90;;;;;;;;;;5010114;28;20050;-66
2022/10/16 12:27:56;;;;;;;16.63;3.20;;;;;;;;;;5010014;28;20057;-63
2022/10/16 12:30:27;;;;;;;16.98;3.20;;;;;;;;;;5010150;28;20042;-64
2022/10/16 12:32:54;;;;;;;20.08;3.70;;;;;;;;;;5009736;28;20061;-65
2022/10/16 12:35:25;;;;;;;16.98;4.07;;;;;;;;;;4992095;28;20050;-65
2022/10/16 12:37:52;;;;;;;21.52;3.55;;;;;;;;;;5024684;28;20111;-65
2022/10/16 12:40:32;;;;;;;16.92;3.33;;;;;;;;;;5010567;28;20108;-64
2022/10/16 12:42:59;;;;;;;20.63;3.72;;;;;;;;;;5029057;28;20072;-67
2022/10/16 12:45:33;;;;;;;17.95;3.67;;;;;;;;;;5013506;28;20140;-63
2022/10/16 12:48:00;;;;;;;19.15;3.78;;;;;;;;;;5013568;28;20049;-63
2022/10/16 12:50:37;;;;;;;21.90;3.50;;;;;;;;;;5013274;28;20140;-64
2022/10/16 12:53:04;;;;;;;19.77;3.38;;;;;;;;;;5013227;28;20049;-64
2022/10/16 12:55:43;;;;;;;20.50;3.90;;;;;;;;;;5028063;28;20049;-66
2022/10/16 12:58:16;;;;;;;15.57;3.55;;;;;;;;;;5013122;28;20054;-63
2022/10/16 13:00:57;;;;;;;17.65;3.72;;;;;;;;;;5012754;28;20180;-62
2022/10/16 13:03:23;;;;;;;16.83;3.70;;;;;;;;;;4995411;28;20413;-66
2022/10/16 13:06:07;;;;;;;15.85;3.05;;;;;;;;;;5012385;28;20053;-64
2022/10/16 13:08:42;;;;;;;16.17;2.95;;;;;;;;;;5012524;28;20449;-64
2022/10/16 13:11:08;;;;;;;15.20;3.03;;;;;;;;;;5011133;28;20399;-64
2022/10/16 13:13:34;;;;;;;15.02;3.60;;;;;;;;;;5012832;28;20050;-67
2022/10/16 13:16:02;;;;;;;20.45;3.42;;;;;;;;;;5027551;28;20450;-63
2022/10/16 13:18:58;;;;;;;15.32;3.10;;;;;;;;;;5012124;28;20579;-63
2022/10/16 13:21:45;;;;;;;15.32;3.03;;;;;;;;;;5001717;28;20507;-66
2022/10/16 13:24:14;;;;;;;18.98;3.28;;;;;;;;;;5012658;28;20402;-66
2022/10/16 13:26:40;;;;;;;16.52;3.53;;;;;;;;;;5012497;28;20085;-65
2022/10/16 13:29:06;;;;;;;15.13;3.45;;;;;;;;;;5011802;28;20050;-65
2022/10/16 13:31:34;;;;;;;;;;;;;;;;;;5012483;28;20097;-64
2022/10/16 13:34:00;;;;;;;15.82;3.38;;;;;;;;;;5012159;28;20390;-66
2022/10/16 13:36:34;;;;;;;17.10;3.67;;;;;;;;;;5011829;28;20184;-67
2022/10/16 13:39:21;;;;;;;20.30;3.58;;;;;;;;;;5012086;28;20090;-68
2022/10/16 13:41:57;;;;;;;22.52;3.40;;;;;;;;;;5001077;28;20097;-65
2022/10/16 13:44:24;;;;;;;16.73;3.03;;;;;;;;;;5012167;28;20108;-65
2022/10/16 13:46:59;;;;;;;17.83;3.92;;;;;;;;;;4994163;28;20050;-64
2022/10/16 13:49:25;;;;;;;24.40;4.00;;;;;;;;;;5011966;28;20091;-67
2022/10/16 13:51:56;;;;;;;15.70;3.75;;;;;;;;;;5010671;28;20137;-66
2022/10/16 13:54:22;;;;;;;15.90;3.60;;;;;;;;;;5011840;28;20045;-70
2022/10/16 13:56:48;;;;;;;18.90;4.03;;;;;;;;;;5011430;28;20050;-64
2022/10/16 13:59:25;;;;;;;19.23;4.03;;;;;;;;;;5011656;28;20046;-64
2022/10/16 14:01:53;;;;;;;19.02;3.75;;;;;;;;;;5011456;28;20049;-65
2022/10/16 14:04:19;;;;;;;21.27;4.10;;;;;;;;;;5011710;28;20045;-65
2022/10/16 14:06:47;;;;;;;19.52;3.72;;;;;;;;;;5011699;28;20052;-65
2022/10/16 14:09:22;;;;;;;17.10;3.70;;;;;;;;;;5011494;28;20133;-65
2022/10/16 14:11:52;;;;;;;20.58;3.80;;;;;;;;;;5011417;28;20086;-65
2022/10/16 14:14:22;;;;;;;19.42;4.05;;;;;;;;;;5011521;28;20145;-66
2022/10/16 14:16:48;;;;;;;17.38;3.80;;;;;;;;;;5011165;28;20057;-64
2022/10/16 14:19:26;;;;;;;19.52;3.72;;;;;;;;;;5011581;28;20108;-65
2022/10/16 14:21:52;;;;;;;18.77;3.63;;;;;;;;;;5011380;28;20124;-66
2022/10/16 14:24:18;;;;;;;;;;;;;;;;;;5012097;28;20100;-67
2022/10/16 14:26:47;;;;;;;21.42;4.15;;;;;;;;;;5011337;28;19966;-66
2022/10/16 14:29:18;;;;;;;19.10;3.63;;;;;;;;;;5011022;28;20064;-65
2022/10/16 14:31:54;;;;;;;19.52;3.97;;;;;;;;;;5011049;28;20101;-65
2022/10/16 14:34:32;;;;;;;18.33;3.22;;;;;;;;;;5011366;28;20046;-64
2022/10/16 14:37:00;;;;;;;23.77;4.28;;;;;;;;;;5010691;28;20054;-63
2022/10/16 14:39:26;;;;;;;19.30;3.75;;;;;;;;;;5010751;28;20457;-65
2022/10/16 14:41:55;;;;;;;19.83;4.15;;;;;;;;;;4993016;28;20366;-65
2022/10/16 14:44:24;;;;;;;18.95;3.33;;;;;;;;;;5010742;28;20163;-65
2022/10/16 14:46:50;;;;;;;15.25;3.50;;;;;;;;;;5010566;28;20046;-65